Time;durP1;ratioP1;P1;durP2;ratioP2;P2;SDS_P1;SDS_P2;PMS_P1;PMS_P2;Temp;Humidity;BMP_temperature;BMP_pressure;BME280_temperature;BME280_humidity;BME280_pressure;Samples;Min_cycle;Max_cycle;Signal;HPM_P1;HPM_P2
2021/09/05 00:01:31;;;;;;;6.9;4.5;;;;;;;15.03;87.05273;939.7841;;;;
2021/09/05 00:04:01;;;;;;;5.5;4.9;;;;;;;14.91;87.81348;939.8422;;;;
2021/09/05 00:06:22;;;;;;;6.6;4.6;;;;;;;14.9;88.0752;939.831;;;;
2021/09/05 00:08:47;;;;;;;5.6;4.4;;;;;;;14.84;88.2832;939.816;;;;
2021/09/05 00:11:12;;;;;;;6.6;5.1;;;;;;;14.83;88.29102;939.8281;;;;
2021/09/05 00:13:37;;;;;;;7.1;5.2;;;;;;;14.96;87.69629;939.8251;;;;
2021/09/05 00:16:02;;;;;;;6.7;5.2;;;;;;;14.96;87.56934;939.8091;;;;
2021/09/05 00:18:28;;;;;;;9.4;4.8;;;;;;;15.01;87.22266;939.824;;;;
2021/09/05 00:20:54;;;;;;;6.7;5.2;;;;;;;15.04;87.12402;939.8265;;;;
2021/09/05 00:23:20;;;;;;;6.9;4.9;;;;;;;15.16;86.75684;939.8106;;;;
2021/09/05 00:25:45;;;;;;;7.7;4.9;;;;;;;15.04;87.20508;939.8514;;;;
2021/09/05 00:28:10;;;;;;;6.9;5.2;;;;;;;14.94;88.03809;939.9006;;;;
2021/09/05 00:30:36;;;;;;;6.8;5.2;;;;;;;15.02;87.8125;939.8884;;;;
2021/09/05 00:33:06;;;;;;;7.5;5;;;;;;;15.13;86.99414;939.8549;;;;
2021/09/05 00:35:26;;;;;;;5.8;5;;;;;;;15.08;87.15625;939.7958;;;;
2021/09/05 00:37:51;;;;;;;6.1;4.8;;;;;;;15.09;86.98438;939.8231;;;;
2021/09/05 00:40:37;;;;;;;6.1;4.8;;;;;;;15.07;87.00195;939.8312;;;;
2021/09/05 00:43:01;;;;;;;7;5;;;;;;;15.02;86.77441;939.7817;;;;
2021/09/05 00:45:27;;;;;;;7.3;4.8;;;;;;;14.92;87.41016;939.762;;;;
2021/09/05 00:47:52;;;;;;;6.2;4.9;;;;;;;14.86;87.6416;939.8368;;;;
2021/09/05 00:50:44;;;;;;;7.4;4.9;;;;;;;14.79;88.09961;939.8095;;;;
2021/09/05 00:54:07;;;;;;;9.2;5.4;;;;;;;14.71;88.5459;939.8091;;;;
2021/09/05 00:56:30;;;;;;;6.9;5.1;;;;;;;14.79;87.97266;939.8272;;;;
2021/09/05 00:58:56;;;;;;;6.2;4.9;;;;;;;14.82;87.74902;939.7849;;;;
2021/09/05 01:01:20;;;;;;;9.7;5.5;;;;;;;14.75;88.18457;939.8498;;;;
2021/09/05 01:03:46;;;;;;;7.8;5.3;;;;;;;14.75;88.20801;939.8337;;;;
2021/09/05 01:06:11;;;;;;;10;5.2;;;;;;;14.7;88.33496;939.8901;;;;
2021/09/05 01:08:37;;;;;;;6.3;5.1;;;;;;;14.7;88.34668;939.8251;;;;
2021/09/05 01:11:02;;;;;;;9;5.4;;;;;;;14.76;87.96777;939.8369;;;;
2021/09/05 01:13:27;;;;;;;9.7;5.6;;;;;;;14.76;87.77148;939.8745;;;;
2021/09/05 01:15:52;;;;;;;7;4.9;;;;;;;14.72;87.92578;939.878;;;;
2021/09/05 01:18:17;;;;;;;7.9;4.9;;;;;;;14.66;88.16602;939.8847;;;;
2021/09/05 01:20:42;;;;;;;7.3;4.8;;;;;;;14.57;88.49414;939.7532;;;;
2021/09/05 01:23:07;;;;;;;7.4;5.1;;;;;;;14.46;89.24219;939.8257;;;;
2021/09/05 01:25:32;;;;;;;7.1;5.3;;;;;;;14.43;89.16895;939.8546;;;;
2021/09/05 01:27:57;;;;;;;9.2;5.3;;;;;;;14.38;89.71094;939.8886;;;;
2021/09/05 01:30:23;;;;;;;7.8;5;;;;;;;14.35;89.87793;939.9247;;;;
2021/09/05 01:32:48;;;;;;;6.6;5.2;;;;;;;14.31;89.8457;939.9185;;;;
2021/09/05 01:35:13;;;;;;;7.8;5.1;;;;;;;14.31;89.84766;939.9352;;;;
2021/09/05 01:37:38;;;;;;;6;4.4;;;;;;;14.34;89.81641;939.8663;;;;
2021/09/05 01:40:03;;;;;;;6.9;4.7;;;;;;;14.33;90.26465;939.9504;;;;
2021/09/05 01:42:28;;;;;;;7.8;4.9;;;;;;;14.32;89.75781;939.9969;;;;
2021/09/05 01:44:53;;;;;;;6.6;4.6;;;;;;;14.4;89.07129;939.9398;;;;
2021/09/05 01:47:51;;;;;;;6.6;4.8;;;;;;;14.47;88.85254;940.058;;;;
2021/09/05 01:50:17;;;;;;;6.7;5.2;;;;;;;14.4;88.44727;940.0705;;;;
2021/09/05 01:52:42;;;;;;;6.6;5.2;;;;;;;14.4;88.35742;940.0792;;;;
2021/09/05 01:55:08;;;;;;;7.1;5.3;;;;;;;14.37;88.77637;940.125;;;;
2021/09/05 01:57:33;;;;;;;6.8;5;;;;;;;14.42;88.4873;940.1523;;;;
2021/09/05 01:59:59;;;;;;;8.7;5.1;;;;;;;14.45;88.41211;940.1638;;;;
2021/09/05 02:02:24;;;;;;;8;5.6;;;;;;;14.5;87.99707;940.1428;;;;
2021/09/05 02:04:54;;;;;;;7.9;5.1;;;;;;;14.51;87.99707;940.1476;;;;
2021/09/05 02:07:45;;;;;;;6.5;5.1;;;;;;;14.43;88.29395;940.0762;;;;
2021/09/05 02:10:10;;;;;;;6.8;5.3;;;;;;;14.48;87.72656;940.1558;;;;
2021/09/05 02:12:36;;;;;;;6.1;4.8;;;;;;;14.45;87.64063;940.1606;;;;
2021/09/05 02:15:01;;;;;;;10.7;5;;;;;;;14.38;88.20215;940.1898;;;;
2021/09/05 02:17:26;;;;;;;5.6;4.5;;;;;;;14.25;88.79785;940.182;;;;
2021/09/05 02:19:52;;;;;;;6.2;5;;;;;;;14.04;90.04492;940.1564;;;;
2021/09/05 02:22:17;;;;;;;6.7;5.1;;;;;;;13.95;90.85352;940.1465;;;;
2021/09/05 02:24:42;;;;;;;6.7;5.3;;;;;;;13.89;90.92285;940.1931;;;;
2021/09/05 02:27:07;;;;;;;6.5;4.9;;;;;;;13.94;90.67871;940.2371;;;;
2021/09/05 02:29:33;;;;;;;6.9;4.7;;;;;;;14.01;90.20996;940.2274;;;;
2021/09/05 02:31:58;;;;;;;7.5;4.8;;;;;;;13.93;90.44629;940.2555;;;;
2021/09/05 02:34:23;;;;;;;6.1;4.8;;;;;;;13.93;90.43359;940.2339;;;;
2021/09/05 02:36:48;;;;;;;7.9;5.1;;;;;;;13.88;90.5293;940.2498;;;;
2021/09/05 02:39:13;;;;;;;5.9;5;;;;;;;13.87;90.52539;940.2394;;;;
2021/09/05 02:41:38;;;;;;;9.4;5.2;;;;;;;13.81;90.7793;940.2383;;;;
2021/09/05 02:44:03;;;;;;;6.8;4.8;;;;;;;13.82;90.68848;940.2443;;;;
2021/09/05 02:46:28;;;;;;;7.4;5.1;;;;;;;13.83;90.66797;940.1859;;;;
2021/09/05 02:48:53;;;;;;;5.9;4.8;;;;;;;13.94;90.0127;940.2283;;;;
2021/09/05 02:51:18;;;;;;;6.1;4.7;;;;;;;14;89.3457;940.1826;;;;
2021/09/05 02:53:44;;;;;;;6;4.9;;;;;;;13.91;89.79688;940.1618;;;;
2021/09/05 02:56:09;;;;;;;6.7;5.1;;;;;;;13.88;90.18457;940.1994;;;;
2021/09/05 02:58:34;;;;;;;5.9;4.6;;;;;;;13.79;90.95703;940.1927;;;;
2021/09/05 03:00:59;;;;;;;5.3;4.7;;;;;;;13.78;90.78516;940.1567;;;;
2021/09/05 03:03:24;;;;;;;6.9;4.4;;;;;;;13.68;91.48828;940.1487;;;;
2021/09/05 03:05:49;;;;;;;11.6;6.5;;;;;;;13.47;92.38379;940.2227;;;;
2021/09/05 03:08:17;;;;;;;11.2;6;;;;;;;13.4;93.20898;940.2286;;;;
2021/09/05 03:10:43;;;;;;;6.8;4.8;;;;;;;13.4;93.14258;940.2678;;;;
2021/09/05 03:13:08;;;;;;;6.2;4.6;;;;;;;13.37;93.61719;940.3413;;;;
2021/09/05 03:15:33;;;;;;;6.3;5.3;;;;;;;13.36;93.60352;940.2558;;;;
2021/09/05 03:17:59;;;;;;;6.1;4.9;;;;;;;13.31;93.90234;940.3172;;;;
2021/09/05 03:20:24;;;;;;;6.6;4.4;;;;;;;13.42;93.37402;940.337;;;;
2021/09/05 03:22:49;;;;;;;6.4;5.1;;;;;;;13.5;92.66895;940.3131;;;;
2021/09/05 03:25:22;;;;;;;6.1;4.6;;;;;;;13.56;92.39551;940.3315;;;;
2021/09/05 03:27:47;;;;;;;6.8;5.1;;;;;;;13.68;91.25879;940.3304;;;;
2021/09/05 03:30:33;;;;;;;7.1;5.3;;;;;;;13.72;91.09375;940.3368;;;;
2021/09/05 03:32:59;;;;;;;6.3;5;;;;;;;13.72;90.66797;940.3295;;;;
2021/09/05 03:35:24;;;;;;;6.7;4.6;;;;;;;13.81;90.08887;940.2936;;;;
2021/09/05 03:37:50;;;;;;;7.3;4.6;;;;;;;13.86;89.61523;940.3339;;;;
2021/09/05 03:40:15;;;;;;;6;4.8;;;;;;;13.84;89.61133;940.3195;;;;
2021/09/05 03:42:40;;;;;;;7.8;4.8;;;;;;;13.79;89.85449;940.3416;;;;
2021/09/05 03:45:42;;;;;;;6.4;4.4;;;;;;;13.71;89.73438;940.368;;;;
2021/09/05 03:48:08;;;;;;;6.9;4.6;;;;;;;13.67;90.09375;940.372;;;;
2021/09/05 03:50:33;;;;;;;6.2;4.8;;;;;;;13.65;90.00879;940.3335;;;;
2021/09/05 03:52:58;;;;;;;7.9;5;;;;;;;13.6;89.9082;940.3195;;;;
2021/09/05 03:55:23;;;;;;;6.3;4.9;;;;;;;13.57;90.06152;940.3387;;;;
2021/09/05 03:57:48;;;;;;;7.5;5;;;;;;;13.59;90.03027;940.3228;;;;
2021/09/05 04:00:30;;;;;;;5.8;4.8;;;;;;;13.59;89.89258;940.3836;;;;
2021/09/05 04:02:59;;;;;;;5.7;4.5;;;;;;;13.62;89.49609;940.4023;;;;
2021/09/05 04:05:27;;;;;;;5.5;4.7;;;;;;;13.54;90.02148;940.3427;;;;
2021/09/05 04:08:12;;;;;;;6.8;5;;;;;;;13.41;91.14453;940.4182;;;;
2021/09/05 04:10:19;;;;;;;6.2;4.5;;;;;;;13.42;90.75391;940.3722;;;;
2021/09/05 04:12:43;;;;;;;5;4.4;;;;;;;13.41;90.81152;940.4086;;;;
2021/09/05 04:15:08;;;;;;;6.3;4.7;;;;;;;13.34;91.00098;940.438;;;;
2021/09/05 04:17:33;;;;;;;6.6;5.1;;;;;;;13.24;91.83203;940.4323;;;;
2021/09/05 04:19:58;;;;;;;5.6;4.7;;;;;;;13.24;92.03906;940.4155;;;;
2021/09/05 04:22:23;;;;;;;6.2;4.3;;;;;;;13.24;92.15234;940.4138;;;;
2021/09/05 04:25:24;;;;;;;5.5;4.5;;;;;;;13.24;92.47363;940.4338;;;;
2021/09/05 04:27:49;;;;;;;7.9;5.1;;;;;;;13.15;92.65137;940.4617;;;;
2021/09/05 04:30:15;;;;;;;7;5.1;;;;;;;13.09;93.0293;940.4344;;;;
2021/09/05 04:32:40;;;;;;;5.9;4.8;;;;;;;13.15;92.44336;940.5153;;;;
2021/09/05 04:35:05;;;;;;;6;4.9;;;;;;;13.19;91.78613;940.5277;;;;
2021/09/05 04:37:30;;;;;;;6.1;4.7;;;;;;;13.13;92.30176;940.576;;;;
2021/09/05 04:39:56;;;;;;;6.8;5.3;;;;;;;13.12;92.19824;940.6024;;;;
2021/09/05 04:42:21;;;;;;;5.3;4.7;;;;;;;13.19;91.52051;940.6565;;;;
2021/09/05 04:44:47;;;;;;;8;5.8;;;;;;;13.3;91.02832;940.6435;;;;
2021/09/05 04:47:12;;;;;;;7.2;5.6;;;;;;;13.34;90.90918;940.6604;;;;
2021/09/05 04:50:03;;;;;;;7.2;5.6;;;;;;;13.33;91.0332;940.642;;;;
2021/09/05 04:52:28;;;;;;;8.6;6.2;;;;;;;13.36;90.76563;940.7292;;;;
2021/09/05 04:54:54;;;;;;;8.5;6.1;;;;;;;13.39;90.5752;940.7302;;;;
2021/09/05 04:57:19;;;;;;;8.7;6.1;;;;;;;13.4;90.30176;940.7589;;;;
2021/09/05 04:59:45;;;;;;;6.6;5.5;;;;;;;13.45;89.96777;940.793;;;;
2021/09/05 05:02:11;;;;;;;7.7;5.5;;;;;;;13.55;89.39063;940.7812;;;;
2021/09/05 05:04:36;;;;;;;6.6;4.8;;;;;;;13.45;90.16309;940.7673;;;;
2021/09/05 05:07:01;;;;;;;5.8;5;;;;;;;13.53;89.97363;940.81;;;;
2021/09/05 05:09:55;;;;;;;6.3;4.5;;;;;;;13.51;90.33789;940.8203;;;;
2021/09/05 05:12:20;;;;;;;6.3;4.7;;;;;;;13.59;89.9043;940.8708;;;;
2021/09/05 05:14:45;;;;;;;5.2;4.2;;;;;;;13.64;89.29395;940.86;;;;
2021/09/05 05:17:10;;;;;;;4.8;4.3;;;;;;;13.68;89.04883;940.9529;;;;
2021/09/05 05:19:35;;;;;;;7.2;4.7;;;;;;;13.55;89.54199;940.99;;;;
2021/09/05 05:22:00;;;;;;;5.7;4.7;;;;;;;13.54;90.2168;940.9587;;;;
2021/09/05 05:24:25;;;;;;;4.9;4.3;;;;;;;13.63;89.77734;940.9897;;;;
2021/09/05 05:29:15;;;;;;;7;5.1;;;;;;;13.74;88.87793;941.0731;;;;
2021/09/05 05:31:41;;;;;;;6.2;4.6;;;;;;;13.78;88.16016;941.0539;;;;
2021/09/05 05:34:06;;;;;;;8.1;4.9;;;;;;;13.85;88.18652;941.0559;;;;
2021/09/05 05:36:33;;;;;;;5.9;4.9;;;;;;;13.9;87.86133;941.0825;;;;
2021/09/05 05:41:22;;;;;;;6.8;5;;;;;;;14.09;87.40723;941.0781;;;;
2021/09/05 05:43:47;;;;;;;5.6;4.1;;;;;;;14.45;87.35254;941.1189;;;;
2021/09/05 05:46:12;;;;;;;5.9;4.2;;;;;;;14.7;84.07129;941.1549;;;;
2021/09/05 05:48:37;;;;;;;5.4;4.2;;;;;;;14.7;84.17383;941.1485;;;;
2021/09/05 05:51:34;;;;;;;6.2;4.5;;;;;;;14.64;84.71484;941.1983;;;;
2021/09/05 05:54:00;;;;;;;5.9;4.1;;;;;;;14.57;85.35938;941.162;;;;
2021/09/05 05:56:24;;;;;;;5.1;4;;;;;;;14.48;85.83691;941.1414;;;;
2021/09/05 05:59:05;;;;;;;6;4;;;;;;;14.44;86.58887;941.1534;;;;
2021/09/05 06:01:30;;;;;;;6.8;4.2;;;;;;;14.66;85.74609;941.1622;;;;
2021/09/05 06:03:56;;;;;;;5.2;4;;;;;;;14.95;85.62793;941.1339;;;;
2021/09/05 06:06:21;;;;;;;5.7;4.4;;;;;;;15.18;83.8291;941.1189;;;;
2021/09/05 06:08:46;;;;;;;4.9;4.2;;;;;;;15.83;82.3584;941.1838;;;;
2021/09/05 06:11:11;;;;;;;4.5;3.5;;;;;;;17.54;74.52344;941.1744;;;;
2021/09/05 06:13:36;;;;;;;4.1;3.2;;;;;;;18.83;66.99219;941.1423;;;;
2021/09/05 06:16:01;;;;;;;4.3;3.3;;;;;;;18.42;67.92871;941.1529;;;;
2021/09/05 06:18:26;;;;;;;3.6;3.2;;;;;;;20.21;63.03516;941.0902;;;;
2021/09/05 06:20:52;;;;;;;4.5;3.5;;;;;;;21.32;58.55859;941.0669;;;;
2021/09/05 06:23:17;;;;;;;6;3.8;;;;;;;22.6;54.75;941.0214;;;;
2021/09/05 06:25:58;;;;;;;3.7;3.1;;;;;;;23.72;51.09766;941.0647;;;;
2021/09/05 06:28:24;;;;;;;3.4;2.9;;;;;;;24.45;48.53027;941.0244;;;;
2021/09/05 06:30:49;;;;;;;4.2;2.9;;;;;;;24.01;48.15234;941.1316;;;;
2021/09/05 06:33:14;;;;;;;4.1;2.9;;;;;;;24.54;47.77344;941.1312;;;;
2021/09/05 06:35:40;;;;;;;4.3;2.9;;;;;;;24.89;46.80859;941.1194;;;;
2021/09/05 06:38:05;;;;;;;3.4;2.8;;;;;;;24.89;46.2666;941.0842;;;;
2021/09/05 06:40:31;;;;;;;3.2;2.8;;;;;;;25.15;45.69141;941.0822;;;;
2021/09/05 06:42:55;;;;;;;3.2;2.6;;;;;;;23.98;47.87891;941.1788;;;;
2021/09/05 06:45:21;;;;;;;3.1;2.8;;;;;;;25.72;44.21191;941.0374;;;;
2021/09/05 06:47:46;;;;;;;2.8;2.5;;;;;;;24.57;46.55078;941.1002;;;;
2021/09/05 06:50:12;;;;;;;3.1;2.8;;;;;;;25.48;45.4541;941.0536;;;;
2021/09/05 06:52:36;;;;;;;3.6;2.6;;;;;;;24.84;46.15527;941.1114;;;;
2021/09/05 06:55:29;;;;;;;3.1;2.7;;;;;;;25.36;45.65332;941.0541;;;;
2021/09/05 06:57:53;;;;;;;4.7;2.9;;;;;;;25.18;47.42969;941.1322;;;;
2021/09/05 07:00:19;;;;;;;3.1;2.8;;;;;;;26.3;45.01563;941.0491;;;;
2021/09/05 07:02:44;;;;;;;3.7;3.3;;;;;;;25.64;44.97266;941.0095;;;;
2021/09/05 07:05:10;;;;;;;4.4;2.7;;;;;;;26.38;45.07129;941.0489;;;;
2021/09/05 07:07:35;;;;;;;4.4;2.8;;;;;;;27.15;42.06543;941.051;;;;
2021/09/05 07:10:00;;;;;;;5;2.9;;;;;;;25.49;44.26074;941.0665;;;;
2021/09/05 07:12:25;;;;;;;3.6;3;;;;;;;22.22;53.03711;941.0843;;;;
2021/09/05 07:14:51;;;;;;;3;2.6;;;;;;;22.46;52.47852;941.0659;;;;
2021/09/05 07:17:16;;;;;;;4;2.7;;;;;;;22.9;52.44922;941.062;;;;
2021/09/05 07:19:55;;;;;;;4.3;2.8;;;;;;;23.12;51.76855;941.0264;;;;
2021/09/05 07:22:20;;;;;;;3.4;2.7;;;;;;;23.85;48.9248;941.0754;;;;
2021/09/05 07:24:45;;;;;;;4.8;2.8;;;;;;;23.51;50.41602;941.0383;;;;
2021/09/05 07:27:10;;;;;;;2.8;2.5;;;;;;;24.77;47.97559;941.0947;;;;
2021/09/05 07:29:35;;;;;;;3.3;2.7;;;;;;;25.38;46.90723;941.093;;;;
2021/09/05 07:32:16;;;;;;;2.9;2.6;;;;;;;24.88;46.63086;941.113;;;;
2021/09/05 07:34:42;;;;;;;3;2.3;;;;;;;26.03;45.21387;941.1614;;;;
2021/09/05 07:37:08;;;;;;;2.7;2.5;;;;;;;25.78;44.62109;941.1591;;;;
2021/09/05 07:39:38;;;;;;;3.1;2.7;;;;;;;26.02;43.55664;941.2084;;;;
2021/09/05 07:42:03;;;;;;;5;2.9;;;;;;;26.48;43.69629;941.1799;;;;
2021/09/05 07:46:54;;;;;;;3.3;3;;;;;;;28.16;41.50684;941.1861;;;;
2021/09/05 07:49:19;;;;;;;4.3;3;;;;;;;27.87;41.50391;941.1764;;;;
2021/09/05 07:51:44;;;;;;;3.3;2.5;;;;;;;27.81;41.25;941.1519;;;;
2021/09/05 07:54:09;;;;;;;2.7;2.5;;;;;;;28.89;39.43164;941.2253;;;;
2021/09/05 07:57:12;;;;;;;3.1;2.5;;;;;;;28.22;40.01563;941.1961;;;;
2021/09/05 07:59:38;;;;;;;3;2.4;;;;;;;27.7;41.86816;941.1578;;;;
2021/09/05 08:02:03;;;;;;;2.9;2.6;;;;;;;29.3;39.1582;941.1937;;;;
2021/09/05 08:04:28;;;;;;;3;2.7;;;;;;;27.97;42.44043;941.1739;;;;
2021/09/05 08:06:53;;;;;;;3.7;2.8;;;;;;;30.17;36.99023;941.1757;;;;
2021/09/05 08:09:18;;;;;;;3.1;2.8;;;;;;;28.88;39.27539;941.1652;;;;
2021/09/05 08:11:43;;;;;;;3;2.5;;;;;;;30.24;36.84082;941.1436;;;;
2021/09/05 08:14:08;;;;;;;3;2.6;;;;;;;30.69;36.05176;941.1013;;;;
2021/09/05 08:16:37;;;;;;;3;2.6;;;;;;;30.36;37.21973;941.1083;;;;
2021/09/05 08:19:20;;;;;;;3.2;2.5;;;;;;;30.02;37.03711;941.0801;;;;
2021/09/05 08:21:46;;;;;;;4.6;2.8;;;;;;;31.69;34.61035;941.1272;;;;
2021/09/05 08:24:11;;;;;;;2.8;2.5;;;;;;;33.11;32.60449;941.1053;;;;
2021/09/05 08:26:36;;;;;;;3.2;2.7;;;;;;;32.23;34.64063;941.1211;;;;
2021/09/05 08:29:01;;;;;;;2.7;2.5;;;;;;;30.92;35.53223;941.0715;;;;
2021/09/05 08:31:26;;;;;;;3.1;2.5;;;;;;;30.86;36.35254;941.1172;;;;
2021/09/05 08:33:51;;;;;;;5.1;3.2;;;;;;;32.14;32.96582;941.0927;;;;
2021/09/05 08:36:16;;;;;;;3;2.7;;;;;;;33.49;30.90039;941.1194;;;;
2021/09/05 08:38:41;;;;;;;2.9;2.6;;;;;;;34.62;29.53027;941.16;;;;
2021/09/05 08:41:06;;;;;;;2.7;2.5;;;;;;;35.06;29.51074;941.1606;;;;
2021/09/05 08:43:32;;;;;;;3.1;2.8;;;;;;;33.69;31.61133;941.1691;;;;
2021/09/05 08:45:57;;;;;;;3.9;2.8;;;;;;;34.47;29.60547;941.0967;;;;
2021/09/05 08:49:21;;;;;;;2.8;2.5;;;;;;;34.4;30.08301;941.1259;;;;
2021/09/05 08:51:46;;;;;;;3.2;2.8;;;;;;;34.5;29.47461;941.1777;;;;
2021/09/05 08:54:11;;;;;;;3.1;2.8;;;;;;;33.06;32.46875;941.1553;;;;
2021/09/05 08:56:36;;;;;;;3.3;2.7;;;;;;;32.49;33.35254;941.1233;;;;
2021/09/05 08:59:02;;;;;;;2.9;2.6;;;;;;;34.19;30.00879;941.0988;;;;
2021/09/05 09:01:27;;;;;;;3.1;2.8;;;;;;;33.65;31.10449;941.1437;;;;
2021/09/05 09:03:52;;;;;;;3.3;3;;;;;;;32.14;34.16504;941.1428;;;;
2021/09/05 09:06:19;;;;;;;4.4;3;;;;;;;31.35;35.66211;941.0894;;;;
2021/09/05 09:08:44;;;;;;;3.2;2.9;;;;;;;31.14;34.82031;941.1156;;;;
2021/09/05 09:11:10;;;;;;;3.2;2.9;;;;;;;28.47;39.08594;941.1122;;;;
2021/09/05 09:13:35;;;;;;;3.4;2.9;;;;;;;27.85;42.90332;941.075;;;;
2021/09/05 09:16:00;;;;;;;3.2;2.9;;;;;;;27.62;42.83398;941.0724;;;;
2021/09/05 09:18:25;;;;;;;2.9;2.7;;;;;;;27.56;43.6582;941.0256;;;;
2021/09/05 09:20:50;;;;;;;3.2;2.8;;;;;;;28.06;40.92773;941.0078;;;;
2021/09/05 09:23:18;;;;;;;6.2;3.4;;;;;;;29.2;37.45898;941.0245;;;;
2021/09/05 09:25:43;;;;;;;3.4;2.8;;;;;;;29.83;36.67578;941.0694;;;;
2021/09/05 09:28:08;;;;;;;2.7;2.5;;;;;;;29.6;37.84863;941.0264;;;;
2021/09/05 09:30:33;;;;;;;3.1;2.8;;;;;;;28.83;40.25879;941.0619;;;;
2021/09/05 09:32:58;;;;;;;3.3;2.8;;;;;;;27.23;44.40918;941.0496;;;;
2021/09/05 09:36:11;;;;;;;3.3;2.9;;;;;;;26.88;47.09961;940.9799;;;;
2021/09/05 09:38:34;;;;;;;3.3;3;;;;;;;27.79;42.31445;940.9709;;;;
2021/09/05 09:41:00;;;;;;;3.9;3.3;;;;;;;27.12;44.11328;940.943;;;;
2021/09/05 09:43:44;;;;;;;3.6;3.1;;;;;;;26.66;48.25;940.9727;;;;
2021/09/05 09:46:09;;;;;;;3.5;3.1;;;;;;;25.37;48.59473;940.9506;;;;
2021/09/05 09:48:34;;;;;;;4.3;3.3;;;;;;;25.11;50.31348;940.9843;;;;
2021/09/05 09:50:59;;;;;;;4;3;;;;;;;24.74;48.25586;940.9459;;;;
2021/09/05 09:53:24;;;;;;;3.7;2.8;;;;;;;24.87;48.96582;940.9;;;;
2021/09/05 09:55:49;;;;;;;4;3.4;;;;;;;24.19;49.92676;940.9011;;;;
2021/09/05 09:58:14;;;;;;;3.9;3.3;;;;;;;24.36;51.38379;940.872;;;;
2021/09/05 10:00:39;;;;;;;5.6;3.2;;;;;;;24.62;51.62598;940.8259;;;;
2021/09/05 10:03:04;;;;;;;4;3;;;;;;;24.86;47.74902;940.8028;;;;
2021/09/05 10:05:30;;;;;;;4.3;3.2;;;;;;;25.04;46.59961;940.8008;;;;
2021/09/05 10:07:55;;;;;;;4.2;3.4;;;;;;;25.35;47.03418;940.7673;;;;
2021/09/05 10:10:20;;;;;;;4.6;3.1;;;;;;;24.81;48.23828;940.7795;;;;
2021/09/05 10:12:45;;;;;;;4.1;3;;;;;;;24.54;47.65625;940.7142;;;;
2021/09/05 10:15:10;;;;;;;3.9;3.2;;;;;;;25.02;46.10254;940.8161;;;;
2021/09/05 10:17:36;;;;;;;3.4;3;;;;;;;24.93;49.59668;940.7756;;;;
2021/09/05 10:20:02;;;;;;;4.2;3.2;;;;;;;25.69;48.40527;940.7059;;;;
2021/09/05 10:22:31;;;;;;;6.3;3.5;;;;;;;25.75;47.72656;940.7388;;;;
2021/09/05 10:24:52;;;;;;;3.4;3;;;;;;;26.47;45.24609;940.6795;;;;
2021/09/05 10:28:12;;;;;;;3.7;3.3;;;;;;;27.39;42.85938;940.697;;;;
2021/09/05 10:30:38;;;;;;;3.8;3.3;;;;;;;28.15;42.18457;940.6985;;;;
2021/09/05 10:33:02;;;;;;;4;3.4;;;;;;;27.94;42.00879;940.7216;;;;
2021/09/05 10:35:27;;;;;;;4.1;3.4;;;;;;;28.03;42.9209;940.6747;;;;
2021/09/05 10:37:52;;;;;;;3.8;3;;;;;;;28.57;41.66406;940.6636;;;;
2021/09/05 10:40:17;;;;;;;3.7;3.1;;;;;;;29.15;40.44238;940.6686;;;;
2021/09/05 10:42:42;;;;;;;4.7;3.5;;;;;;;29.76;38.1123;940.6395;;;;
2021/09/05 10:45:08;;;;;;;4.3;3.4;;;;;;;30.24;37.7832;940.6213;;;;
2021/09/05 10:47:32;;;;;;;3.7;3.1;;;;;;;30.36;38.16309;940.559;;;;
2021/09/05 10:49:58;;;;;;;5.5;3.8;;;;;;;29.38;39.74902;940.6353;;;;
2021/09/05 10:52:23;;;;;;;3.5;3;;;;;;;29.44;39.93262;940.5737;;;;
2021/09/05 10:54:48;;;;;;;6.7;3.3;;;;;;;30.51;37.75781;940.6122;;;;
2021/09/05 10:57:13;;;;;;;3.2;2.9;;;;;;;31.34;35.66211;940.6348;;;;
2021/09/05 11:00:18;;;;;;;3.4;3;;;;;;;30.48;36.91895;940.6586;;;;
2021/09/05 11:02:43;;;;;;;3.8;3.1;;;;;;;29.27;41.39453;940.6626;;;;
2021/09/05 11:05:08;;;;;;;4.8;3.6;;;;;;;30.2;38.85449;940.6644;;;;
2021/09/05 11:07:33;;;;;;;4.4;3.2;;;;;;;30.36;38.37793;940.6277;;;;
2021/09/05 11:09:58;;;;;;;3.6;3.1;;;;;;;30.54;38.31055;940.7014;;;;
2021/09/05 11:12:25;;;;;;;4;3.2;;;;;;;30.33;37.63477;940.6549;;;;
2021/09/05 11:14:50;;;;;;;4.1;3.3;;;;;;;30.37;38.21191;940.5764;;;;
2021/09/05 11:18:15;;;;;;;3.5;3.2;;;;;;;29.46;39.68457;940.5892;;;;
2021/09/05 11:20:41;;;;;;;3.4;3;;;;;;;29.57;39.27637;940.6005;;;;
2021/09/05 11:23:06;;;;;;;4.4;3.2;;;;;;;31.09;36.11914;940.6042;;;;
2021/09/05 11:25:32;;;;;;;3;2.8;;;;;;;32.2;34.57715;940.6301;;;;
2021/09/05 11:27:57;;;;;;;3.6;3.3;;;;;;;30.78;36.65723;940.5983;;;;
2021/09/05 11:30:22;;;;;;;3.7;3.3;;;;;;;29.34;40.35352;940.558;;;;
2021/09/05 11:32:47;;;;;;;4.3;3.2;;;;;;;29.03;39.29004;940.6145;;;;
2021/09/05 11:35:13;;;;;;;5;3.5;;;;;;;29.73;39.35059;940.582;;;;
2021/09/05 11:37:38;;;;;;;3.7;3.3;;;;;;;30.42;37.6543;940.5965;;;;
2021/09/05 11:40:03;;;;;;;4;2.9;;;;;;;31.36;35.45898;940.5465;;;;
2021/09/05 11:42:29;;;;;;;3.3;3;;;;;;;31.25;36.03711;940.6394;;;;
2021/09/05 11:44:54;;;;;;;3.5;3.1;;;;;;;30.44;37.10742;940.5978;;;;
2021/09/05 11:47:19;;;;;;;3.6;3.1;;;;;;;30.18;37.83691;940.6157;;;;
2021/09/05 11:49:44;;;;;;;3.6;3;;;;;;;29.9;38.04102;940.593;;;;
2021/09/05 11:52:39;;;;;;;3.8;3.4;;;;;;;29.67;39.91699;940.5076;;;;
2021/09/05 11:55:04;;;;;;;4.2;3.4;;;;;;;30.86;36.17285;940.5862;;;;
2021/09/05 11:57:30;;;;;;;4;2.8;;;;;;;32.27;34.64258;940.6824;;;;
2021/09/05 12:00:29;;;;;;;4;3.1;;;;;;;32.61;32.36523;940.6553;;;;
2021/09/05 12:02:54;;;;;;;3.6;3.3;;;;;;;31.27;36.5293;940.5652;;;;
2021/09/05 12:05:19;;;;;;;3.6;3.3;;;;;;;31.03;35.85254;940.5737;;;;
2021/09/05 12:07:44;;;;;;;3.8;3.4;;;;;;;31.07;36.95508;940.6152;;;;
2021/09/05 12:10:11;;;;;;;3.4;3.1;;;;;;;30.47;37.96875;940.6284;;;;
2021/09/05 12:12:36;;;;;;;4.2;3;;;;;;;30.68;38.44141;940.7589;;;;
2021/09/05 12:15:01;;;;;;;3.6;2.8;;;;;;;31.38;35.12598;940.7051;;;;
2021/09/05 12:17:26;;;;;;;4;3;;;;;;;31.31;36.7959;940.6955;;;;
2021/09/05 12:19:51;;;;;;;4.4;3.4;;;;;;;31.26;35.91797;940.7219;;;;
2021/09/05 12:22:16;;;;;;;4.3;3.2;;;;;;;31.83;35.31641;940.7367;;;;
2021/09/05 12:24:41;;;;;;;4.3;3.6;;;;;;;32.34;33.31738;940.7883;;;;
2021/09/05 12:27:06;;;;;;;4.9;3.2;;;;;;;32.09;35.66016;940.752;;;;
2021/09/05 12:29:32;;;;;;;4.7;3.5;;;;;;;31.31;37.42969;940.7165;;;;
2021/09/05 12:31:57;;;;;;;4;3.3;;;;;;;30.73;37.5498;940.7299;;;;
2021/09/05 12:34:22;;;;;;;3.6;3.2;;;;;;;31.51;36.15332;940.7324;;;;
2021/09/05 12:36:47;;;;;;;3.7;3.3;;;;;;;32.28;33.76855;940.7689;;;;
2021/09/05 12:39:12;;;;;;;3.8;3.4;;;;;;;31.24;37.41211;940.743;;;;
2021/09/05 12:42:51;;;;;;;3.8;3.1;;;;;;;30.11;38.71484;940.7369;;;;
2021/09/05 12:45:16;;;;;;;3.3;3;;;;;;;31.06;36.36816;940.7115;;;;
2021/09/05 12:47:42;;;;;;;3.4;3.1;;;;;;;32.25;34.89258;940.7844;;;;
2021/09/05 12:52:32;;;;;;;3.8;3.2;;;;;;;32.22;34.56738;940.8119;;;;
2021/09/05 12:54:57;;;;;;;3.9;3.5;;;;;;;30.92;37.67285;940.6941;;;;
2021/09/05 12:57:22;;;;;;;3.8;3.2;;;;;;;31.46;35.69531;940.7667;;;;
2021/09/05 12:59:47;;;;;;;4.2;3.6;;;;;;;31.67;35.89063;940.7316;;;;
2021/09/05 13:02:13;;;;;;;3.9;3.3;;;;;;;30.19;40.2373;940.7377;;;;
2021/09/05 13:04:38;;;;;;;3.5;3.1;;;;;;;30.46;39.23438;940.7366;;;;
2021/09/05 13:07:03;;;;;;;3.9;3.1;;;;;;;30.8;38.8457;940.6568;;;;
2021/09/05 13:09:28;;;;;;;3.2;2.9;;;;;;;32.13;35.75879;940.7028;;;;
2021/09/05 13:11:53;;;;;;;3.7;3.3;;;;;;;32.7;33.84766;940.7317;;;;
2021/09/05 13:14:18;;;;;;;3.3;3;;;;;;;33.2;33.42871;940.7018;;;;
2021/09/05 13:16:44;;;;;;;4.8;3.4;;;;;;;32.25;34.6416;940.6858;;;;
2021/09/05 13:19:09;;;;;;;4;3.2;;;;;;;32.89;33.0332;940.7241;;;;
2021/09/05 13:21:34;;;;;;;3.2;2.9;;;;;;;31.93;33.99414;940.6308;;;;
2021/09/05 13:23:59;;;;;;;4.4;3.4;;;;;;;30.27;37.35645;940.6092;;;;
2021/09/05 13:27:47;;;;;;;4.2;3.3;;;;;;;29;40.08398;940.6688;;;;
2021/09/05 13:30:12;;;;;;;3.6;3.3;;;;;;;28.44;41.31836;940.596;;;;
2021/09/05 13:32:37;;;;;;;5.6;4;;;;;;;28.69;41.99609;940.5834;;;;
2021/09/05 13:35:02;;;;;;;4.8;3.8;;;;;;;29.33;40.66211;940.5471;;;;
2021/09/05 13:37:27;;;;;;;4.5;3.5;;;;;;;29;41.64355;940.616;;;;
2021/09/05 13:39:52;;;;;;;4.3;3.2;;;;;;;28.98;40.87988;940.5532;;;;
2021/09/05 13:42:17;;;;;;;3.9;3.5;;;;;;;28.75;40.96582;940.5209;;;;
2021/09/05 13:44:42;;;;;;;4;3.6;;;;;;;28.76;41.69238;940.4902;;;;
2021/09/05 13:47:07;;;;;;;4.6;3.5;;;;;;;28.7;41.71094;940.4953;;;;
2021/09/05 13:49:32;;;;;;;4.1;3.4;;;;;;;28.38;42.82324;940.5341;;;;
2021/09/05 13:51:57;;;;;;;5.6;3.6;;;;;;;27.86;42.98633;940.5309;;;;
2021/09/05 13:54:23;;;;;;;4.6;3.7;;;;;;;27.33;45.42773;940.4867;;;;
2021/09/05 13:56:48;;;;;;;3.7;3.2;;;;;;;27.57;45.46387;940.5004;;;;
2021/09/05 13:59:14;;;;;;;3.8;3.4;;;;;;;26.72;46.4668;940.4316;;;;
2021/09/05 14:01:39;;;;;;;4.9;3.9;;;;;;;26.35;49.29395;940.4999;;;;
2021/09/05 14:04:04;;;;;;;4;3.2;;;;;;;26.34;46.41602;940.4838;;;;
2021/09/05 14:06:29;;;;;;;4.6;3.7;;;;;;;25.87;46.50879;940.5158;;;;
2021/09/05 14:08:54;;;;;;;4.4;3.7;;;;;;;25.76;47.33691;940.4318;;;;
2021/09/05 14:11:19;;;;;;;6.3;4.1;;;;;;;26.05;48.01855;940.4839;;;;
2021/09/05 14:13:44;;;;;;;4.6;3.8;;;;;;;26.11;46.16797;940.447;;;;
2021/09/05 14:16:26;;;;;;;5.2;3.5;;;;;;;26.27;47.32031;940.4772;;;;
2021/09/05 14:18:52;;;;;;;5.6;3.8;;;;;;;25.99;48.52051;940.5192;;;;
2021/09/05 14:21:17;;;;;;;4.3;3.6;;;;;;;25.68;50.4248;940.5097;;;;
2021/09/05 14:23:42;;;;;;;3.6;3.2;;;;;;;25.5;49.51855;940.4397;;;;
2021/09/05 14:26:21;;;;;;;4.7;3.7;;;;;;;25.2;48.72949;940.4958;;;;
2021/09/05 14:28:45;;;;;;;3.9;3.5;;;;;;;25.08;49.54297;940.5311;;;;
2021/09/05 14:31:12;;;;;;;4.1;3.5;;;;;;;25.26;48.73535;940.5691;;;;
2021/09/05 14:33:50;;;;;;;4.6;3.7;;;;;;;25.07;51.13477;940.507;;;;
2021/09/05 14:47:54;;;;;;;3.8;3.2;;;;;;;25.17;49.19922;940.5506;;;;
2021/09/05 14:48:14;;;;;;;4.6;3.7;;;;;;;24.94;48.64355;940.6291;;;;
2021/09/05 14:50:41;;;;;;;4.2;3.3;;;;;;;24.82;48.85352;940.639;;;;
2021/09/05 14:55:18;;;;;;;4.8;3.8;;;;;;;24.81;49.5127;940.6603;;;;